Terminal Aerodrome Forecast
Issued by NWS

Home | Current Version | Previous Version | Graphics & Text | Print | Product List | Glossary On
Versions: 1 2 3 4 5 6 7 8 9 10 11 12 13 14 15 16 17 18 19 20 21
000
FTUS43 KBIS 250234 AAB
TAFJMS
TAF AMD
KJMS 250234Z 2503/2524 16005KT 2SM -SN OVC020
     FM250330 17007KT 5SM -SN OVC035
     FM250430 20009KT P6SM SKC
     FM251200 28012G20KT P6SM BKN015
     FM251700 28015G25KT P6SM SCT025=

USA.gov is the U.S. government's official web portal to all federal, state and local government web resources and services.